Time;durP1;ratioP1;P1;durP2;ratioP2;P2;SDS_P1;SDS_P2;PMS_P1;PMS_P2;Temp;Humidity;BMP_temperature;BMP_pressure;BME280_temperature;BME280_humidity;BME280_pressure;Samples;Min_cycle;Max_cycle;Signal;HPM_P1;HPM_P2
2023/04/27 00:01:19;;;;;;;8.18;4.97;;;1.90;99.90;;;;;;4960173;28;20057;-63
2023/04/27 00:03:45;;;;;;;8.98;5.32;;;1.90;99.90;;;;;;4960694;28;20030;-63
2023/04/27 00:06:11;;;;;;;8.85;5.05;;;1.90;99.90;;;;;;4958224;28;20548;-64
2023/04/27 00:08:36;;;;;;;8.73;5.75;;;1.90;99.90;;;;;;4939848;28;20050;-63
2023/04/27 00:11:02;;;;;;;10.43;5.35;;;1.90;1.00;;;;;;4956579;28;20327;-63
2023/04/27 00:13:28;;;;;;;8.57;6.03;;;1.90;1.00;;;;;;4957396;28;20038;-63
2023/04/27 00:15:54;;;;;;;9.73;6.45;;;1.90;99.90;;;;;;4959175;28;20046;-63
2023/04/27 00:18:20;;;;;;;8.98;6.75;;;1.90;1.00;;;;;;4958132;28;20120;-63
2023/04/27 00:20:45;;;;;;;11.90;7.00;;;1.80;1.00;;;;;;4963327;28;20426;-63
2023/04/27 00:23:11;;;;;;;11.57;7.15;;;1.80;1.00;;;;;;4956632;28;20180;-63
2023/04/27 00:25:37;;;;;;;11.15;7.30;;;1.90;1.00;;;;;;4959168;28;20096;-63
2023/04/27 00:28:03;;;;;;;14.35;7.68;;;1.90;1.00;;;;;;4962263;28;20042;-63
2023/04/27 00:30:28;;;;;;;12.30;7.68;;;2.00;1.00;;;;;;4949002;28;20389;-63
2023/04/27 00:32:54;;;;;;;13.00;7.40;;;2.10;1.00;;;;;;4963435;28;20124;-63
2023/04/27 00:35:20;;;;;;;13.25;6.90;;;2.30;1.00;;;;;;4956177;28;20042;-63
2023/04/27 00:37:46;;;;;;;10.60;7.15;;;2.40;1.00;;;;;;4956845;28;20821;-63
2023/04/27 00:40:11;;;;;;;11.38;6.88;;;2.50;2.90;;;;;;4946299;28;20068;-63
2023/04/27 00:42:37;;;;;;;10.02;6.68;;;2.50;6.50;;;;;;4957697;28;20034;-63
2023/04/27 00:45:04;;;;;;;11.10;6.45;;;2.50;1.00;;;;;;4957313;28;20046;-63
2023/04/27 00:47:31;;;;;;;8.82;6.97;;;2.60;1.00;;;;;;4956860;28;20590;-63
2023/04/27 00:49:57;;;;;;;10.40;7.30;;;2.60;1.00;;;;;;4948404;28;20139;-63
2023/04/27 00:52:23;;;;;;;10.43;7.03;;;2.70;1.00;;;;;;4942149;28;20390;-63
2023/04/27 00:54:50;;;;;;;8.57;6.50;;;2.80;1.00;;;;;;4956997;28;20540;-63
2023/04/27 00:57:16;;;;;;;10.25;6.93;;;2.80;2.80;;;;;;4960044;28;20550;-63
2023/04/27 00:59:42;;;;;;;10.98;7.13;;;2.80;12.90;;;;;;4957344;28;20050;-63
2023/04/27 01:02:10;;;;;;;11.13;6.32;;;2.90;18.00;;;;;;4956714;28;20124;-63
2023/04/27 01:04:36;;;;;;;9.93;5.78;;;3.00;90.40;;;;;;4962685;28;20052;-63
2023/04/27 01:07:02;;;;;;;11.40;6.57;;;3.10;76.90;;;;;;4975012;28;20038;-64
2023/04/27 01:09:28;;;;;;;9.82;6.28;;;3.10;81.30;;;;;;4960894;28;20527;-63
2023/04/27 01:11:54;;;;;;;8.75;5.75;;;3.20;90.30;;;;;;4945315;28;20046;-63
2023/04/27 01:14:20;;;;;;;9.07;5.10;;;3.20;83.60;;;;;;4977866;28;20092;-63
2023/04/27 01:16:46;;;;;;;8.50;4.65;;;3.30;99.90;;;;;;4977446;28;20039;-63
2023/04/27 01:19:12;;;;;;;7.50;4.75;;;3.40;91.00;;;;;;4965008;28;20041;-63
2023/04/27 01:21:38;;;;;;;8.13;4.80;;;3.40;86.70;;;;;;4940398;28;20784;-63
2023/04/27 01:24:07;;;;;;;6.15;4.20;;;3.50;92.70;;;;;;4960107;28;20054;-63
2023/04/27 01:26:33;;;;;;;7.32;4.35;;;3.40;93.40;;;;;;4959356;28;20030;-63
2023/04/27 01:28:59;;;;;;;5.80;4.00;;;3.50;93.40;;;;;;4964864;28;20100;-63
2023/04/27 01:31:24;;;;;;;6.75;4.50;;;3.60;94.20;;;;;;4954323;28;20045;-64
2023/04/27 01:33:50;;;;;;;7.93;4.57;;;3.60;97.90;;;;;;4982618;28;20044;-64
2023/04/27 01:36:16;;;;;;;9.30;4.32;;;3.60;99.90;;;;;;4961888;28;20066;-64
2023/04/27 01:38:42;;;;;;;5.53;4.20;;;3.50;99.90;;;;;;4959428;28;20034;-63
2023/04/27 01:41:08;;;;;;;6.82;4.55;;;3.50;96.60;;;;;;4976433;28;20528;-64
2023/04/27 01:43:35;;;;;;;6.75;4.95;;;3.40;89.30;;;;;;4959040;28;20535;-63
2023/04/27 01:46:13;;;;;;;8.80;4.80;;;3.30;79.20;;;;;;4959818;28;20048;-63
2023/04/27 01:48:39;;;;;;;6.65;4.60;;;3.20;69.40;;;;;;4957356;28;20133;-63
2023/04/27 01:51:05;;;;;;;8.80;5.18;;;3.10;46.10;;;;;;4974502;28;20172;-64
2023/04/27 01:53:31;;;;;;;8.40;5.20;;;3.00;41.10;;;;;;4959396;28;20048;-63
2023/04/27 01:55:58;;;;;;;9.30;5.22;;;2.90;23.10;;;;;;4956688;28;20354;-64
2023/04/27 01:58:24;;;;;;;8.80;5.40;;;2.80;7.40;;;;;;4957716;28;20541;-64
2023/04/27 02:00:50;;;;;;;9.02;6.03;;;2.70;1.00;;;;;;4962443;28;20084;-64
2023/04/27 02:03:15;;;;;;;9.90;5.28;;;2.60;1.00;;;;;;4962436;28;20742;-64
2023/04/27 02:05:42;;;;;;;8.32;5.20;;;2.50;1.00;;;;;;4960014;28;20048;-63
2023/04/27 02:08:07;;;;;;;6.75;5.45;;;2.40;1.00;;;;;;4957414;28;20045;-64
2023/04/27 02:10:34;;;;;;;8.40;5.35;;;2.30;1.00;;;;;;4960614;28;20038;-65
2023/04/27 02:13:00;;;;;;;8.18;5.32;;;2.30;1.00;;;;;;4958129;28;20129;-64
2023/04/27 02:15:26;;;;;;;7.00;5.10;;;2.20;1.00;;;;;;4957857;28;20041;-64
2023/04/27 02:17:51;;;;;;;10.32;5.95;;;2.10;1.00;;;;;;4957299;28;20042;-64
2023/04/27 02:20:17;;;;;;;7.25;5.75;;;2.10;1.00;;;;;;4960927;28;20050;-64
2023/04/27 02:22:43;;;;;;;9.55;5.20;;;2.10;1.00;;;;;;4946619;28;20062;-64
2023/04/27 02:25:12;;;;;;;10.45;5.70;;;2.00;1.00;;;;;;4985506;28;20452;-63
2023/04/27 02:27:40;;;;;;;9.48;5.68;;;2.00;1.00;;;;;;4949535;28;20038;-64
2023/04/27 02:30:07;;;;;;;10.30;6.22;;;1.90;1.00;;;;;;4945221;28;20054;-64
2023/04/27 02:32:33;;;;;;;8.95;6.18;;;1.80;1.00;;;;;;4956892;28;20861;-63
2023/04/27 02:34:59;;;;;;;8.32;6.35;;;1.80;1.00;;;;;;4959316;28;20041;-64
2023/04/27 02:37:25;;;;;;;9.60;5.43;;;1.70;1.00;;;;;;4963366;28;20050;-64
2023/04/27 02:39:51;;;;;;;9.70;5.63;;;1.70;1.00;;;;;;4943566;28;20688;-64
2023/04/27 02:42:17;;;;;;;10.43;6.30;;;1.60;1.00;;;;;;4956599;28;20057;-63
2023/04/27 02:44:43;;;;;;;11.75;7.20;;;1.60;1.00;;;;;;4941496;28;20416;-64
2023/04/27 02:47:09;;;;;;;10.13;6.25;;;1.60;1.00;;;;;;4962587;28;20100;-64
2023/04/27 02:49:35;;;;;;;9.50;6.53;;;1.50;1.00;;;;;;4962479;28;20056;-63
2023/04/27 02:52:00;;;;;;;10.07;6.78;;;1.50;1.00;;;;;;4965130;28;20046;-64
2023/04/27 02:54:26;;;;;;;11.48;6.15;;;1.50;1.00;;;;;;4959889;28;20225;-64
2023/04/27 02:56:52;;;;;;;8.75;6.20;;;1.40;1.00;;;;;;4941966;28;20335;-64
2023/04/27 02:59:17;;;;;;;8.57;6.57;;;1.40;1.00;;;;;;4944801;28;20050;-64
2023/04/27 03:01:43;;;;;;;11.50;7.05;;;1.40;1.00;;;;;;4964500;28;20104;-63
2023/04/27 03:04:09;;;;;;;11.73;6.60;;;1.40;1.00;;;;;;4941274;28;20073;-64
2023/04/27 03:06:35;;;;;;;8.43;6.72;;;1.30;1.00;;;;;;4959375;28;20571;-64
2023/04/27 03:09:02;;;;;;;10.27;6.63;;;1.30;1.00;;;;;;4958130;28;20030;-64
2023/04/27 03:11:28;;;;;;;10.85;7.90;;;1.30;1.00;;;;;;4960211;28;20070;-63
2023/04/27 03:13:53;;;;;;;11.20;7.13;;;1.40;1.00;;;;;;4957486;28;20157;-64
2023/04/27 03:16:19;;;;;;;13.00;7.32;;;1.30;1.00;;;;;;4960265;28;20073;-64
2023/04/27 03:18:45;;;;;;;10.50;7.25;;;1.40;1.00;;;;;;4966110;28;20038;-63
2023/04/27 03:21:12;;;;;;;10.88;7.43;;;1.40;1.00;;;;;;4944760;28;20054;-64
2023/04/27 03:23:38;;;;;;;13.32;7.95;;;1.30;1.00;;;;;;4961194;28;20592;-64
2023/04/27 03:26:12;;;;;;;10.27;6.75;;;1.30;1.00;;;;;;4955040;28;20080;-64
2023/04/27 03:28:38;;;;;;;9.60;6.75;;;1.20;1.00;;;;;;4937894;28;20471;-64
2023/04/27 03:31:11;;;;;;;9.40;6.88;;;1.10;1.00;;;;;;4960646;28;20129;-64
2023/04/27 03:33:37;;;;;;;13.07;7.75;;;1.20;1.00;;;;;;4960884;28;20069;-64
2023/04/27 03:36:04;;;;;;;13.38;6.50;;;1.20;1.00;;;;;;4972032;28;20084;-63
2023/04/27 03:38:30;;;;;;;11.68;7.45;;;1.10;1.00;;;;;;4961547;28;20580;-64
2023/04/27 03:40:56;;;;;;;14.25;7.18;;;1.10;1.00;;;;;;4960954;28;20129;-63
2023/04/27 03:43:22;;;;;;;9.65;7.03;;;1.10;1.00;;;;;;4944901;28;20181;-64
2023/04/27 03:45:48;;;;;;;11.65;7.28;;;1.10;1.00;;;;;;4957251;28;20178;-63
2023/04/27 03:48:15;;;;;;;10.05;7.03;;;1.10;1.00;;;;;;4950715;28;20473;-64
2023/04/27 03:50:42;;;;;;;9.93;7.20;;;1.10;1.00;;;;;;4959322;28;20433;-63
2023/04/27 03:53:07;;;;;;;13.75;7.60;;;1.10;1.00;;;;;;4956032;28;20053;-63
2023/04/27 03:55:36;;;;;;;8.23;6.78;;;1.10;1.00;;;;;;4940779;28;20586;-63
2023/04/27 03:58:02;;;;;;;13.30;7.70;;;1.10;28.60;;;;;;4978238;28;20042;-64
2023/04/27 04:00:27;;;;;;;17.60;9.60;;;1.00;14.00;;;;;;4960223;28;20451;-63
2023/04/27 04:02:53;;;;;;;15.50;10.25;;;1.00;14.90;;;;;;4955774;28;20474;-64
2023/04/27 04:05:19;;;;;;;14.10;9.50;;;1.00;19.30;;;;;;4954893;28;20531;-64
2023/04/27 04:07:45;;;;;;;14.23;9.48;;;1.00;12.30;;;;;;4943864;28;20243;-64
2023/04/27 04:10:10;;;;;;;16.35;10.00;;;0.90;12.40;;;;;;4957743;28;20516;-63
2023/04/27 04:12:36;;;;;;;13.57;9.07;;;0.90;24.90;;;;;;4954003;28;20045;-64
2023/04/27 04:15:05;;;;;;;16.70;11.77;;;1.00;18.90;;;;;;4957281;28;20302;-63
2023/04/27 04:17:32;;;;;;;14.35;11.20;;;0.90;11.90;;;;;;4952198;28;20142;-64
2023/04/27 04:19:58;;;;;;;17.75;11.45;;;0.90;8.90;;;;;;4956486;28;20234;-63
2023/04/27 04:22:24;;;;;;;20.60;12.30;;;0.90;1.10;;;;;;4957924;28;20054;-63
2023/04/27 04:24:50;;;;;;;17.52;12.02;;;0.90;1.00;;;;;;4964625;28;20439;-63
2023/04/27 04:27:16;;;;;;;18.08;11.68;;;0.90;10.00;;;;;;4960552;28;20243;-63
2023/04/27 04:29:41;;;;;;;19.33;12.32;;;1.00;25.70;;;;;;4939701;28;20042;-64
2023/04/27 04:32:08;;;;;;;19.27;12.48;;;1.00;42.20;;;;;;4962359;28;20638;-64
2023/04/27 04:34:37;;;;;;;17.65;12.38;;;1.00;59.00;;;;;;4955512;28;20405;-64
2023/04/27 04:37:04;;;;;;;18.27;13.43;;;1.00;63.00;;;;;;4957526;28;20050;-65
2023/04/27 04:39:33;;;;;;;22.45;13.82;;;1.00;75.70;;;;;;4957406;28;20539;-64
2023/04/27 04:41:59;;;;;;;20.40;13.25;;;1.00;86.90;;;;;;4958822;28;20073;-63
2023/04/27 04:44:24;;;;;;;18.80;13.07;;;1.10;67.80;;;;;;4944925;28;20101;-64
2023/04/27 04:46:50;;;;;;;20.73;13.52;;;1.10;81.40;;;;;;4960089;28;20405;-64
2023/04/27 04:49:16;;;;;;;19.02;13.70;;;1.10;92.40;;;;;;4958704;28;20033;-64
2023/04/27 04:51:46;;;;;;;19.48;13.77;;;1.20;99.90;;;;;;4959073;28;20077;-63
2023/04/27 04:54:11;;;;;;;17.40;12.93;;;1.30;99.90;;;;;;4958437;28;20045;-64
2023/04/27 04:56:37;;;;;;;17.00;12.95;;;1.20;99.90;;;;;;4957424;28;20042;-64
2023/04/27 04:59:03;;;;;;;20.42;13.23;;;1.40;99.90;;;;;;4963384;28;20137;-63
2023/04/27 05:01:28;;;;;;;20.45;13.85;;;1.50;99.90;;;;;;4939513;28;20042;-63
2023/04/27 05:03:54;;;;;;;18.08;13.90;;;1.60;99.90;;;;;;4928835;28;20045;-64
2023/04/27 05:06:20;;;;;;;17.00;12.48;;;1.70;99.90;;;;;;4958768;28;20042;-64
2023/04/27 05:08:46;;;;;;;18.98;12.07;;;1.80;99.90;;;;;;4948306;28;20054;-64
2023/04/27 05:11:11;;;;;;;19.05;12.63;;;1.90;99.90;;;;;;4943876;28;20042;-64
2023/04/27 05:13:37;;;;;;;14.88;12.55;;;2.00;99.90;;;;;;4944404;28;20441;-63
2023/04/27 05:16:06;;;;;;;16.38;12.13;;;2.10;99.90;;;;;;4956776;28;20227;-64
2023/04/27 05:18:32;;;;;;;15.10;11.57;;;2.30;99.90;;;;;;4955420;28;20342;-63
2023/04/27 05:20:58;;;;;;;18.90;11.90;;;2.50;99.90;;;;;;4940107;28;20460;-64
2023/04/27 05:23:24;;;;;;;14.93;10.85;;;2.70;99.90;;;;;;4976689;28;20069;-64
2023/04/27 05:25:50;;;;;;;14.90;11.07;;;2.70;99.90;;;;;;4921587;28;20046;-63
2023/04/27 05:28:16;;;;;;;18.90;11.43;;;3.00;99.90;;;;;;4941782;28;20631;-64
2023/04/27 05:30:42;;;;;;;12.68;10.38;;;3.20;99.90;;;;;;4953390;28;20405;-63
2023/04/27 05:33:08;;;;;;;13.63;9.20;;;3.60;99.90;;;;;;4957491;28;20042;-63
2023/04/27 05:35:33;;;;;;;12.88;7.82;;;3.90;99.90;;;;;;4979563;28;20053;-64
2023/04/27 05:38:00;;;;;;;8.63;7.07;;;4.40;99.90;;;;;;4957695;28;20045;-63
2023/04/27 05:40:26;;;;;;;9.27;6.57;;;4.70;99.90;;;;;;4956038;28;20042;-64
2023/04/27 05:42:52;;;;;;;7.10;5.78;;;5.00;99.90;;;;;;4939520;28;20559;-64
2023/04/27 05:45:18;;;;;;;9.75;5.93;;;5.30;97.50;;;;;;4970910;28;20332;-66
2023/04/27 05:47:44;;;;;;;10.18;5.63;;;5.50;78.40;;;;;;4956434;28;20139;-64
2023/04/27 05:50:10;;;;;;;6.95;5.20;;;5.70;83.60;;;;;;4959606;28;20148;-64
2023/04/27 05:52:36;;;;;;;7.60;5.25;;;5.90;93.40;;;;;;4962097;28;20508;-64
2023/04/27 05:55:02;;;;;;;6.50;4.30;;;6.10;99.90;;;;;;4948837;28;20185;-64
2023/04/27 05:57:28;;;;;;;8.20;4.38;;;6.30;99.90;;;;;;4943694;28;20113;-64
2023/04/27 05:59:54;;;;;;;7.32;3.30;;;6.40;93.90;;;;;;4958114;28;20509;-64
2023/04/27 06:02:21;;;;;;;6.68;3.80;;;6.50;99.90;;;;;;4948090;28;20041;-64
2023/04/27 06:04:46;;;;;;;10.63;3.25;;;6.70;99.90;;;;;;4959941;28;20038;-64
2023/04/27 06:07:14;;;;;;;7.85;3.30;;;6.90;90.50;;;;;;4958989;28;20367;-64
2023/04/27 06:09:40;;;;;;;7.70;3.00;;;7.10;99.90;;;;;;4946289;28;20169;-64
2023/04/27 06:12:07;;;;;;;5.57;3.00;;;7.30;99.90;;;;;;4941911;28;20050;-64
2023/04/27 06:14:33;;;;;;;4.85;2.90;;;7.40;99.90;;;;;;4964304;28;20026;-64
2023/04/27 06:16:59;;;;;;;6.35;3.15;;;7.50;94.10;;;;;;4963232;28;20049;-65
2023/04/27 06:19:25;;;;;;;5.80;3.17;;;7.70;24.80;;;;;;4930486;28;20328;-65
2023/04/27 06:21:52;;;;;;;4.03;3.22;;;7.90;37.70;;;;;;4962509;28;20042;-64
2023/04/27 06:24:18;;;;;;;3.95;2.88;;;8.10;1.00;;;;;;4945509;28;20567;-64
2023/04/27 06:26:44;;;;;;;4.15;3.20;;;8.20;1.00;;;;;;4959508;28;20046;-64
2023/04/27 06:29:10;;;;;;;6.07;3.30;;;8.20;99.90;;;;;;4962705;28;20471;-64
2023/04/27 06:31:35;;;;;;;5.18;3.13;;;8.50;1.00;;;;;;4976424;28;20322;-64
2023/04/27 06:34:01;;;;;;;7.68;3.65;;;8.50;99.90;;;;;;4946385;28;20034;-65
2023/04/27 06:36:27;;;;;;;6.70;3.90;;;8.50;99.90;;;;;;4940244;28;20663;-65
2023/04/27 06:38:56;;;;;;;6.63;3.38;;;8.60;99.90;;;;;;4962407;28;20049;-64
2023/04/27 06:41:23;;;;;;;8.07;3.78;;;8.80;99.90;;;;;;4938286;28;20103;-64
2023/04/27 06:43:49;;;;;;;7.10;3.25;;;9.00;99.90;;;;;;4945518;28;20042;-65
2023/04/27 06:46:14;;;;;;;6.95;3.10;;;9.00;99.90;;;;;;4979992;28;20041;-65
2023/04/27 06:48:40;;;;;;;5.22;3.00;;;9.10;99.90;;;;;;4958732;28;20104;-64
2023/04/27 06:51:06;;;;;;;3.92;2.35;;;9.40;99.90;;;;;;4958810;28;20711;-65
2023/04/27 06:53:32;;;;;;;4.97;2.10;;;9.50;99.90;;;;;;4962559;28;20070;-65
2023/04/27 06:55:58;;;;;;;5.30;2.17;;;9.70;99.90;;;;;;4978749;28;20228;-65
2023/04/27 06:58:24;;;;;;;5.80;2.42;;;9.50;99.90;;;;;;4945802;28;20042;-64
2023/04/27 07:00:50;;;;;;;3.65;1.90;;;9.70;99.90;;;;;;4965046;28;20326;-65
2023/04/27 07:03:16;;;;;;;6.60;2.05;;;9.80;99.90;;;;;;4959225;28;20281;-65
2023/04/27 07:05:42;;;;;;;6.30;1.85;;;9.70;99.90;;;;;;4917156;28;20046;-64
2023/04/27 07:08:07;;;;;;;3.92;1.63;;;9.90;99.90;;;;;;4947715;28;20130;-65
2023/04/27 07:10:33;;;;;;;6.65;1.77;;;9.80;99.90;;;;;;4925607;28;20093;-64
2023/04/27 07:12:59;;;;;;;5.13;2.00;;;9.90;99.90;;;;;;4975460;28;20170;-64
2023/04/27 07:15:25;;;;;;;3.45;1.60;;;10.00;99.90;;;;;;4956780;28;20041;-66
2023/04/27 07:17:54;;;;;;;3.55;1.88;;;10.20;99.90;;;;;;4959756;28;20274;-64
2023/04/27 07:20:20;;;;;;;3.38;1.92;;;10.40;99.90;;;;;;4975750;28;20410;-64
2023/04/27 07:22:46;;;;;;;3.80;1.60;;;10.50;99.90;;;;;;4976515;28;20264;-64
2023/04/27 07:25:12;;;;;;;5.75;1.67;;;10.50;44.50;;;;;;4945192;28;20049;-64
2023/04/27 07:27:38;;;;;;;6.40;2.00;;;10.60;99.90;;;;;;4959116;28;20050;-65
2023/04/27 07:30:07;;;;;;;3.80;1.83;;;10.60;69.80;;;;;;4959366;28;20081;-65
2023/04/27 07:32:33;;;;;;;4.88;2.33;;;10.70;57.30;;;;;;4947304;28;20045;-65
2023/04/27 07:34:59;;;;;;;4.57;1.58;;;10.70;71.90;;;;;;4967883;28;20069;-65
2023/04/27 07:37:25;;;;;;;4.05;1.65;;;10.70;75.30;;;;;;4964957;28;20045;-64
2023/04/27 07:39:52;;;;;;;4.60;1.20;;;11.20;75.80;;;;;;4943624;28;20440;-65
2023/04/27 07:42:18;;;;;;;3.47;0.90;;;11.30;1.00;;;;;;4961410;28;20489;-65
2023/04/27 07:44:44;;;;;;;5.07;1.20;;;11.40;2.70;;;;;;4945185;28;20551;-66
2023/04/27 07:47:09;;;;;;;2.63;0.60;;;11.40;1.00;;;;;;4940994;28;20283;-65
2023/04/27 07:49:37;;;;;;;4.97;1.23;;;11.60;1.00;;;;;;4959080;28;20160;-65
2023/04/27 07:52:03;;;;;;;2.97;1.00;;;11.30;99.90;;;;;;4963429;28;20038;-65
2023/04/27 07:54:29;;;;;;;3.33;0.82;;;11.30;99.90;;;;;;4954538;28;20038;-65
2023/04/27 07:56:55;;;;;;;2.75;0.85;;;11.60;1.00;;;;;;4958338;28;20669;-66
2023/04/27 07:59:20;;;;;;;2.13;1.08;;;11.80;99.90;;;;;;4964168;28;20124;-66
2023/04/27 08:01:46;;;;;;;3.20;0.90;;;11.80;99.90;;;;;;4960993;28;20046;-67
2023/04/27 08:04:12;;;;;;;2.75;0.93;;;12.00;99.90;;;;;;4948235;28;20472;-65
2023/04/27 08:06:38;;;;;;;5.97;0.80;;;12.20;99.90;;;;;;4963339;28;20053;-66
2023/04/27 08:09:04;;;;;;;2.30;0.65;;;12.00;99.90;;;;;;4944548;28;20050;-66
2023/04/27 08:11:30;;;;;;;3.95;0.85;;;11.90;99.90;;;;;;4958809;28;20390;-65
2023/04/27 08:13:56;;;;;;;3.58;0.88;;;11.80;99.90;;;;;;4964226;28;20548;-67
2023/04/27 08:16:22;;;;;;;4.07;0.80;;;12.00;99.90;;;;;;4959529;28;20033;-66
2023/04/27 08:18:51;;;;;;;3.15;1.00;;;12.00;99.90;;;;;;4970701;28;20489;-65
2023/04/27 08:21:17;;;;;;;3.13;0.85;;;12.30;99.90;;;;;;4973070;28;20074;-66
2023/04/27 08:23:44;;;;;;;3.70;1.08;;;12.50;99.90;;;;;;4956083;28;20897;-66
2023/04/27 08:26:14;;;;;;;4.07;1.05;;;12.50;99.90;;;;;;4927410;28;20185;-66
2023/04/27 08:28:39;;;;;;;2.17;0.65;;;12.40;99.90;;;;;;4970660;28;20115;-66
2023/04/27 08:31:05;;;;;;;1.67;0.68;;;12.40;99.90;;;;;;4954288;28;20148;-66
2023/04/27 08:33:31;;;;;;;4.47;0.77;;;12.60;99.90;;;;;;4943459;28;20034;-65
2023/04/27 08:35:57;;;;;;;1.50;0.77;;;12.80;99.90;;;;;;4927855;28;20034;-67
2023/04/27 08:38:22;;;;;;;3.00;0.60;;;12.80;99.90;;;;;;4942659;28;20572;-66
2023/04/27 08:40:48;;;;;;;4.60;0.88;;;12.80;99.90;;;;;;4953429;28;20550;-65
2023/04/27 08:43:14;;;;;;;2.90;0.70;;;13.20;99.90;;;;;;4959174;28;20081;-66
2023/04/27 08:45:48;;;;;;;4.53;0.70;;;13.30;99.90;;;;;;4940712;28;20046;-65
2023/04/27 08:48:14;;;;;;;1.48;0.52;;;13.00;99.90;;;;;;4952692;28;20548;-65
2023/04/27 08:50:43;;;;;;;6.07;0.90;;;12.70;98.70;;;;;;4951346;28;20176;-66
2023/04/27 08:53:20;;;;;;;2.85;0.80;;;12.60;99.90;;;;;;4948388;28;20460;-64
2023/04/27 08:55:46;;;;;;;4.15;0.88;;;12.40;99.90;;;;;;4952072;28;20547;-65
2023/04/27 08:58:15;;;;;;;3.58;0.80;;;12.10;99.90;;;;;;4957628;28;20308;-65
2023/04/27 09:00:51;;;;;;;3.22;0.65;;;12.00;99.90;;;;;;4944362;28;20311;-66
2023/04/27 09:03:22;;;;;;;2.53;0.60;;;11.90;98.60;;;;;;4959265;28;20050;-66
2023/04/27 09:05:48;;;;;;;4.03;1.08;;;11.80;99.90;;;;;;4940414;28;20451;-66
2023/04/27 09:08:14;;;;;;;4.57;1.10;;;11.70;99.90;;;;;;4954222;28;20212;-65
2023/04/27 09:10:47;;;;;;;2.47;0.98;;;11.60;99.90;;;;;;4941287;28;20136;-66
2023/04/27 09:13:14;;;;;;;2.80;0.80;;;11.80;99.90;;;;;;4967368;28;20809;-66
2023/04/27 09:15:50;;;;;;;4.07;1.35;;;12.00;99.90;;;;;;4943727;28;20045;-66
2023/04/27 09:18:17;;;;;;;5.97;1.17;;;12.20;99.80;;;;;;4922962;28;20477;-66
2023/04/27 09:20:52;;;;;;;3.40;1.33;;;12.30;99.90;;;;;;4974405;28;20041;-66
2023/04/27 09:23:26;;;;;;;5.47;1.30;;;12.30;95.10;;;;;;4956272;28;20061;-66
2023/04/27 09:25:54;;;;;;;3.47;0.90;;;12.40;95.40;;;;;;4939463;28;20073;-67
2023/04/27 09:28:21;;;;;;;3.10;1.20;;;12.20;93.50;;;;;;4955498;28;20046;-67
2023/04/27 09:30:58;;;;;;;2.47;1.35;;;12.20;92.10;;;;;;4967779;28;20581;-66
2023/04/27 09:33:25;;;;;;;4.57;0.98;;;12.20;95.20;;;;;;4952451;28;20038;-66
2023/04/27 09:35:52;;;;;;;4.18;1.38;;;12.10;93.60;;;;;;4953186;28;20133;-66
2023/04/27 09:38:19;;;;;;;3.92;0.95;;;12.10;90.20;;;;;;4949217;28;20043;-66
2023/04/27 09:40:44;;;;;;;3.65;1.38;;;12.20;92.50;;;;;;4965127;28;20368;-66
2023/04/27 09:43:11;;;;;;;3.65;1.20;;;12.00;79.20;;;;;;4932580;28;20155;-66
2023/04/27 09:45:37;;;;;;;2.90;1.13;;;12.00;84.60;;;;;;4962599;28;20046;-66
2023/04/27 09:48:07;;;;;;;2.83;1.20;;;12.00;88.80;;;;;;4932895;28;20050;-66
2023/04/27 09:50:42;;;;;;;3.35;1.05;;;12.00;80.70;;;;;;4933434;28;20034;-66
2023/04/27 09:53:13;;;;;;;3.25;1.13;;;12.00;78.30;;;;;;4945502;28;20105;-66
2023/04/27 09:56:08;;;;;;;3.22;1.30;;;12.00;76.00;;;;;;4957652;28;20050;-66
2023/04/27 09:59:08;;;;;;;4.03;1.48;;;12.20;76.00;;;;;;4905800;28;20046;-68
2023/04/27 10:01:48;;;;;;;5.30;1.80;;;12.20;77.40;;;;;;4956746;28;20152;-66
2023/04/27 10:04:33;;;;;;;5.18;1.90;;;12.10;80.70;;;;;;4930585;28;20046;-67
2023/04/27 10:07:00;;;;;;;5.38;1.60;;;12.10;72.10;;;;;;4946852;28;20432;-66
2023/04/27 10:09:29;;;;;;;5.30;2.17;;;12.30;85.10;;;;;;4929396;28;20087;-66
2023/04/27 10:11:55;;;;;;;4.68;1.40;;;12.20;73.00;;;;;;4916498;28;20811;-66
2023/04/27 10:14:22;;;;;;;4.03;1.50;;;12.20;65.00;;;;;;4932473;28;20867;-67
2023/04/27 10:16:56;;;;;;;3.30;1.83;;;11.90;61.70;;;;;;4947557;28;20105;-66
2023/04/27 10:19:23;;;;;;;7.93;2.08;;;11.80;60.10;;;;;;4952605;28;20136;-66
2023/04/27 10:22:02;;;;;;;5.82;3.65;;;11.60;52.10;;;;;;4932235;28;20489;-66
2023/04/27 10:24:42;;;;;;;4.22;1.55;;;11.20;48.20;;;;;;4952994;28;20128;-66
2023/04/27 10:27:11;;;;;;;4.28;1.58;;;11.10;52.00;;;;;;4946134;28;20060;-66
2023/04/27 10:29:44;;;;;;;4.53;1.77;;;10.90;59.30;;;;;;4937522;28;20064;-66
2023/04/27 10:32:23;;;;;;;4.65;1.90;;;10.90;62.30;;;;;;4953338;28;20282;-66
2023/04/27 10:35:02;;;;;;;4.90;2.10;;;10.80;66.70;;;;;;4942490;28;20543;-66
2023/04/27 10:37:42;;;;;;;3.33;1.90;;;10.70;82.40;;;;;;4979346;28;20061;-65
2023/04/27 10:40:13;;;;;;;4.53;2.17;;;10.80;91.10;;;;;;4960546;28;20049;-65
2023/04/27 10:42:39;;;;;;;5.43;2.40;;;10.70;90.80;;;;;;4980893;28;20081;-65
2023/04/27 10:45:06;;;;;;;4.05;2.55;;;10.80;99.90;;;;;;4944648;28;20538;-67
2023/04/27 10:47:41;;;;;;;5.63;2.63;;;10.90;99.90;;;;;;4981128;28;20088;-65
2023/04/27 10:50:10;;;;;;;7.20;3.05;;;10.80;99.90;;;;;;4947015;28;20049;-64
2023/04/27 10:52:40;;;;;;;4.65;2.78;;;10.70;98.40;;;;;;4963215;28;20218;-66
2023/04/27 10:55:19;;;;;;;7.63;2.28;;;10.70;99.90;;;;;;4954404;28;20042;-65
2023/04/27 10:57:53;;;;;;;4.45;2.10;;;10.70;97.20;;;;;;4959746;28;20101;-65
2023/04/27 11:00:24;;;;;;;6.03;2.30;;;10.70;90.30;;;;;;4959636;28;20723;-65
2023/04/27 11:02:50;;;;;;;4.65;1.80;;;10.80;92.60;;;;;;4977901;28;20315;-65
2023/04/27 11:05:18;;;;;;;5.53;2.10;;;10.80;95.70;;;;;;4956961;28;20116;-65
2023/04/27 11:07:44;;;;;;;4.60;2.00;;;10.80;97.70;;;;;;4935544;28;20035;-65
2023/04/27 11:10:14;;;;;;;5.38;2.10;;;10.90;99.90;;;;;;4962985;28;20120;-65
2023/04/27 11:12:41;;;;;;;3.97;2.45;;;10.80;99.90;;;;;;4942827;28;20046;-65
2023/04/27 11:15:08;;;;;;;5.18;2.10;;;10.80;99.90;;;;;;4964057;28;20325;-64
2023/04/27 11:17:41;;;;;;;5.82;2.30;;;10.70;99.90;;;;;;4966879;28;20045;-64
2023/04/27 11:20:08;;;;;;;9.40;4.22;;;10.80;99.90;;;;;;4969261;28;20050;-64
2023/04/27 11:22:44;;;;;;;7.60;2.40;;;10.80;99.90;;;;;;4988681;28;20869;-64
2023/04/27 11:25:11;;;;;;;6.00;2.10;;;10.80;99.90;;;;;;4965760;28;20201;-65
2023/04/27 11:27:37;;;;;;;6.55;2.50;;;10.90;99.90;;;;;;4962257;28;20050;-64
2023/04/27 11:30:04;;;;;;;5.65;2.45;;;10.90;99.90;;;;;;4954868;28;20650;-64
2023/04/27 11:32:30;;;;;;;5.80;2.30;;;11.00;99.90;;;;;;4939608;28;20845;-66
2023/04/27 11:34:56;;;;;;;8.15;2.60;;;11.20;99.90;;;;;;4953928;28;20042;-64
2023/04/27 11:37:24;;;;;;;5.75;2.30;;;11.40;99.90;;;;;;4970343;28;20485;-64
2023/04/27 11:39:50;;;;;;;6.40;2.90;;;11.40;99.00;;;;;;4977740;28;20061;-64
2023/04/27 11:42:18;;;;;;;5.18;2.45;;;11.30;94.60;;;;;;4963538;28;20520;-65
2023/04/27 11:44:54;;;;;;;6.28;2.60;;;11.50;84.30;;;;;;4975825;28;20545;-63
2023/04/27 11:47:21;;;;;;;5.82;2.60;;;11.50;90.70;;;;;;4971784;28;20066;-64
2023/04/27 11:49:53;;;;;;;7.68;2.80;;;11.80;92.50;;;;;;4972774;28;20057;-65
2023/04/27 11:52:19;;;;;;;5.27;2.40;;;11.80;84.40;;;;;;4958192;28;20576;-63
2023/04/27 11:54:57;;;;;;;5.57;2.45;;;11.80;92.30;;;;;;4957553;28;20047;-65
2023/04/27 11:57:28;;;;;;;5.07;2.60;;;11.50;80.20;;;;;;4942278;28;20129;-63
2023/04/27 11:59:55;;;;;;;6.45;2.47;;;11.60;90.40;;;;;;4965841;28;20057;-63
2023/04/27 12:02:22;;;;;;;5.03;2.20;;;11.60;91.60;;;;;;4944133;28;21131;-64
2023/04/27 12:04:51;;;;;;;7.50;2.60;;;11.50;92.00;;;;;;4957582;28;20459;-64
2023/04/27 12:07:17;;;;;;;7.93;2.40;;;11.40;97.40;;;;;;4942708;28;20084;-64
2023/04/27 12:09:45;;;;;;;3.72;1.88;;;11.10;99.90;;;;;;4948786;28;20038;-64
2023/04/27 12:12:12;;;;;;;4.93;2.20;;;11.10;99.90;;;;;;4952990;28;20042;-65
2023/04/27 12:14:39;;;;;;;5.00;2.20;;;11.20;99.90;;;;;;4947691;28;20168;-65
2023/04/27 12:17:05;;;;;;;3.35;1.98;;;11.10;99.90;;;;;;4971926;28;20125;-65
2023/04/27 12:19:31;;;;;;;5.15;2.38;;;11.10;99.90;;;;;;4960865;28;20042;-65
2023/04/27 12:21:58;;;;;;;5.22;2.45;;;10.90;99.90;;;;;;4943235;28;20106;-64
2023/04/27 12:24:23;;;;;;;6.72;2.80;;;10.90;99.90;;;;;;4972456;28;20413;-65
2023/04/27 12:26:50;;;;;;;3.75;2.58;;;10.80;99.90;;;;;;4956094;28;20038;-66
2023/04/27 12:29:16;;;;;;;5.45;2.58;;;10.60;99.90;;;;;;4966108;28;20068;-65
2023/04/27 12:31:43;;;;;;;8.85;3.20;;;10.60;99.90;;;;;;4922954;28;20427;-65
2023/04/27 12:34:09;;;;;;;4.68;2.88;;;10.70;99.90;;;;;;4944272;28;20037;-65
2023/04/27 12:36:35;;;;;;;5.03;2.60;;;10.70;99.90;;;;;;4942727;28;20601;-65
2023/04/27 12:39:15;;;;;;;7.22;3.38;;;10.60;99.90;;;;;;4943883;28;20112;-65
2023/04/27 12:41:48;;;;;;;7.28;3.35;;;10.40;99.90;;;;;;4942916;28;20053;-64
2023/04/27 12:44:15;;;;;;;9.52;3.85;;;10.50;99.90;;;;;;4958960;28;20313;-64
2023/04/27 12:46:42;;;;;;;10.52;3.35;;;10.50;1.00;;;;;;4959547;28;20073;-64
2023/04/27 12:49:09;;;;;;;7.55;3.50;;;10.50;99.90;;;;;;4957895;28;20294;-64
2023/04/27 12:51:36;;;;;;;7.07;3.53;;;10.60;99.90;;;;;;4953152;28;20487;-65